createdAt,value
2019-02-11T00:04:00.162Z,2
2019-02-11T00:14:03.111Z,3
2019-02-11T00:24:10.596Z,2
2019-02-11T00:34:17.711Z,2
2019-02-11T00:44:25.457Z,3
2019-02-11T00:54:31.978Z,3
2019-02-11T01:04:38.724Z,2
2019-02-11T01:14:46.847Z,2
2019-02-11T01:24:54.766Z,3
2019-02-11T01:35:01.547Z,3
2019-02-11T01:45:10.067Z,2
2019-02-11T01:55:17.882Z,2
2019-02-11T02:05:23.494Z,1
2019-02-11T02:15:31.474Z,2
2019-02-11T02:25:40.429Z,3
2019-02-11T02:35:50.496Z,2
2019-02-11T02:45:58.611Z,3
2019-02-11T02:56:03.801Z,3
2019-02-11T03:06:14.205Z,2
2019-02-11T03:16:19.468Z,2
2019-02-11T03:26:29.670Z,2
2019-02-11T03:36:36.941Z,3
2019-02-11T03:44:54.639Z,2
2019-02-11T03:55:01.411Z,4
2019-02-11T04:05:09.558Z,2
2019-02-11T04:15:16.993Z,4
2019-02-11T04:25:25.635Z,4
2019-02-11T04:35:33.628Z,3
2019-02-11T04:45:40.883Z,2
2019-02-11T04:55:49.233Z,5
2019-02-11T05:05:56.030Z,2
2019-02-11T05:15:17.250Z,3
2019-02-11T05:25:24.303Z,5
2019-02-11T05:35:33.393Z,6
2019-02-11T05:45:40.841Z,5
2019-02-11T05:55:49.009Z,3
2019-02-11T06:05:57.872Z,3
2019-02-11T06:16:06.671Z,3
2019-02-11T06:26:16.454Z,2
2019-02-11T06:36:22.304Z,3
2019-02-11T06:46:29.928Z,4
2019-02-11T06:56:36.650Z,4
2019-02-11T07:06:48.916Z,9
2019-02-11T07:16:56.025Z,4
2019-02-11T07:18:08.766Z,4
2019-02-11T07:28:19.203Z,6
2019-02-11T07:38:28.568Z,4
2019-02-11T07:48:37.929Z,4
2019-02-11T07:58:49.373Z,6
2019-02-11T08:08:57.957Z,4
2019-02-11T08:16:13.276Z,4
2019-02-11T08:19:32.283Z,5
2019-02-11T08:25:48.017Z,5
2019-02-11T08:35:59.540Z,3
2019-02-11T08:46:35.739Z,4
2019-02-11T08:48:49.561Z,3
2019-02-11T08:50:26.846Z,5
2019-02-11T09:02:02.145Z,3
2019-02-11T09:03:27.752Z,4
2019-02-11T09:06:39.408Z,5
2019-02-11T09:08:56.309Z,4
2019-02-11T09:19:01.733Z,3
2019-02-11T09:25:32.256Z,4
2019-02-11T09:35:38.065Z,3
2019-02-11T09:36:52.322Z,4
2019-02-11T09:38:17.875Z,3
2019-02-11T09:45:37.643Z,3
2019-02-11T09:55:45.673Z,2
2019-02-11T10:02:29.810Z,4
2019-02-11T10:06:55.705Z,4
2019-02-11T10:16:59.929Z,4
2019-02-11T10:27:11.635Z,4
2019-02-11T10:27:56.471Z,5
2019-02-11T10:31:15.504Z,4
2019-02-11T10:41:19.908Z,5
2019-02-11T10:51:29.758Z,6
2019-02-11T11:01:36.445Z,4
2019-02-11T11:05:08.830Z,4
2019-02-11T11:15:13.841Z,6
2019-02-11T11:25:21.577Z,4
2019-02-11T11:27:39.145Z,5
2019-02-11T11:28:49.542Z,4
2019-02-11T11:33:07.537Z,6
2019-02-11T11:42:36.162Z,5
2019-02-11T11:47:48.155Z,4
2019-02-11T11:57:59.510Z,7
2019-02-11T12:06:20.652Z,5
2019-02-11T12:15:44.009Z,5
2019-02-11T12:17:03.051Z,4
2019-02-11T12:17:43.414Z,6
2019-02-11T12:24:43.856Z,5
2019-02-11T12:32:13.686Z,5
2019-02-11T12:34:22.883Z,5
2019-02-11T12:37:50.273Z,5
2019-02-11T12:40:02.940Z,5
2019-02-11T12:47:21.467Z,4
2019-02-11T12:56:43.750Z,5
2019-02-11T13:00:59.700Z,7
2019-02-11T13:06:30.007Z,5
2019-02-11T13:13:48.245Z,6
2019-02-11T13:16:40.224Z,5
2019-02-11T13:18:17.683Z,4
2019-02-11T13:19:30.085Z,4
2019-02-11T13:22:44.088Z,4
2019-02-11T13:32:52.385Z,3
2019-02-11T13:40:11.933Z,5
2019-02-11T13:51:23.116Z,4
2019-02-11T14:01:31.405Z,5
2019-02-11T14:04:00.297Z,5
2019-02-11T14:05:12.201Z,5
2019-02-11T14:14:45.837Z,5
2019-02-11T14:15:58.554Z,5
2019-02-11T14:18:16.302Z,5
2019-02-11T14:23:29.945Z,6
2019-02-11T14:33:38.915Z,5
2019-02-11T14:34:51.735Z,5
2019-02-11T14:36:54.282Z,4
2019-02-11T14:39:31.806Z,7
2019-02-11T14:49:06.515Z,4
2019-02-11T14:59:15.088Z,4
2019-02-11T15:02:33.081Z,5
2019-02-11T15:12:38.119Z,3
2019-02-11T15:21:13.235Z,3
2019-02-11T15:31:20.195Z,3
2019-02-11T15:34:36.902Z,5
2019-02-11T15:44:39.365Z,4
2019-02-11T15:46:56.520Z,5
2019-02-11T15:57:00.072Z,4
2019-02-11T15:59:17.030Z,8
2019-02-11T16:09:38.035Z,4
2019-02-11T16:19:45.092Z,4
2019-02-11T16:30:33.592Z,6
2019-02-11T16:40:40.889Z,3
2019-02-11T16:50:51.159Z,4
2019-02-11T17:00:59.920Z,5
2019-02-11T17:08:17.543Z,3
2019-02-11T17:16:36.302Z,4
2019-02-11T17:19:48.273Z,6
2019-02-11T17:21:04.710Z,7
2019-02-11T17:22:28.042Z,4
2019-02-11T17:32:32.455Z,5
2019-02-11T17:42:37.217Z,6
2019-02-11T17:49:53.927Z,5
2019-02-11T18:00:01.185Z,6
2019-02-11T18:10:10.006Z,11
2019-02-11T18:20:20.089Z,6
2019-02-11T18:30:29.224Z,4
2019-02-11T18:34:51.710Z,8
2019-02-11T18:45:10.283Z,5
2019-02-11T18:49:35.125Z,4
2019-02-11T18:50:13.241Z,3
2019-02-11T19:00:18.405Z,4
2019-02-11T19:10:27.619Z,3
2019-02-11T19:20:36.186Z,4
2019-02-11T19:30:45.088Z,3
2019-02-11T19:40:51.919Z,5
2019-02-11T19:51:00.377Z,4
2019-02-11T20:01:07.675Z,5
2019-02-11T20:11:14.112Z,3
2019-02-11T20:20:35.493Z,4
2019-02-11T20:30:42.435Z,6
2019-02-11T20:40:50.443Z,5
2019-02-11T20:50:58.953Z,5
2019-02-11T21:01:07.132Z,6
2019-02-11T21:11:14.173Z,5
2019-02-11T21:21:21.954Z,5
2019-02-11T21:31:28.653Z,4
2019-02-11T21:41:35.129Z,5
2019-02-11T21:51:40.874Z,5
2019-02-11T22:01:49.662Z,6
2019-02-11T22:11:59.759Z,6
2019-02-11T22:22:08.797Z,11
2019-02-11T22:32:16.388Z,10
2019-02-11T22:42:23.189Z,11
2019-02-11T22:52:31.238Z,8
2019-02-11T23:02:40.155Z,8
2019-02-11T23:12:47.116Z,9
2019-02-11T23:22:54.450Z,9
2019-02-11T23:33:01.570Z,7
2019-02-11T23:43:09.316Z,9
2019-02-11T23:53:16.123Z,9
